Time;durP1;ratioP1;P1;durP2;ratioP2;P2;SDS_P1;SDS_P2;PMS_P1;PMS_P2;Temp;Humidity;BMP_temperature;BMP_pressure;BME280_temperature;BME280_humidity;BME280_pressure;Samples;Min_cycle;Max_cycle;Signal;HPM_P1;HPM_P2
2021/09/18 00:00:22;;;;;;;18.23;10.18;;;;;;;17.51;100.00;146560.55;1834996;77;22129;-68
2021/09/18 00:02:57;;;;;;;16.15;9.90;;;;;;;17.56;100.00;146573.16;1853546;77;22136;-65
2021/09/18 00:05:32;;;;;;;17.82;10.35;;;;;;;17.57;100.00;146574.41;1835008;77;22120;-61
2021/09/18 00:08:26;;;;;;;17.65;10.53;;;;;;;17.54;100.00;146568.09;1834969;77;22136;-63
2021/09/18 00:11:02;;;;;;;16.02;9.85;;;;;;;17.55;100.00;146569.36;1819403;77;27966;-65
2021/09/18 00:13:44;;;;;;;17.62;9.50;;;;;;;17.58;100.00;146576.97;1834103;77;22566;-64
2021/09/18 00:16:18;;;;;;;15.95;9.18;;;;;;;17.56;100.00;146573.16;1853519;77;22546;-66
2021/09/18 00:19:19;;;;;;;14.95;9.65;;;;;;;17.50;100.00;146556.75;1853494;77;22613;-63
2021/09/18 00:21:53;;;;;;;16.50;10.40;;;;;;;17.54;100.00;146568.09;1834991;77;22125;-61
2021/09/18 00:24:54;;;;;;;19.40;10.30;;;;;;;17.49;100.00;146555.50;1834121;77;22138;-64
2021/09/18 00:27:47;;;;;;;17.92;10.05;;;;;;;17.53;100.00;146565.61;1853556;77;22554;-56
2021/09/18 00:30:22;;;;;;;13.72;10.00;;;;;;;17.51;100.00;146559.30;1853553;77;22124;-61
2021/09/18 00:33:16;;;;;;;19.70;11.28;;;;;;;17.48;100.00;146551.75;1834979;77;22583;-65
2021/09/18 00:35:52;;;;;;;14.85;10.03;;;;;;;17.50;100.00;146556.75;1834801;77;22176;-64
2021/09/18 00:38:29;;;;;;;17.92;11.05;;;;;;;17.51;100.00;146559.30;1834857;77;22125;-59
2021/09/18 00:41:24;;;;;;;21.70;11.50;;;;;;;17.44;100.00;146541.64;1834816;77;22591;-63
2021/09/18 00:43:59;;;;;;;16.37;10.43;;;;;;;17.49;100.00;146555.50;1835040;77;22546;-64
2021/09/18 00:46:34;;;;;;;21.12;10.93;;;;;;;17.41;100.00;146535.33;1834926;77;22151;-58
2021/09/18 00:49:27;;;;;;;16.07;11.28;;;;;;;17.47;100.00;146550.44;1834958;77;22128;-61
2021/09/18 00:52:21;;;;;;;16.32;9.93;;;;;;;17.48;100.00;146551.75;1835028;77;22571;-66
2021/09/18 00:55:16;;;;;;;18.25;10.53;;;;;;;17.48;100.00;146551.75;1835022;77;22152;-65
2021/09/18 00:58:11;;;;;;;18.95;11.08;;;;;;;17.47;100.00;146550.44;1835536;77;22136;-58
2021/09/18 01:00:47;;;;;;;15.70;10.45;;;;;;;17.46;100.00;146547.94;1835434;77;22160;-63
2021/09/18 01:03:22;;;;;;;16.80;10.05;;;;;;;17.45;100.00;146544.14;1835038;77;22156;-61
2021/09/18 01:06:19;;;;;;;23.12;11.90;;;;;;;17.39;100.00;146530.28;1835123;77;22137;-62
2021/09/18 01:08:59;;;;;;;19.95;11.33;;;;;;;17.44;100.00;146542.89;1835027;77;22125;-62
2021/09/18 01:11:53;;;;;;;18.52;11.63;;;;;;;17.51;100.00;146560.55;1834964;77;22136;-65
2021/09/18 01:14:28;;;;;;;20.50;11.65;;;;;;;17.53;100.00;146565.61;1835001;77;22128;-62
2021/09/18 01:17:04;;;;;;;16.97;11.22;;;;;;;17.53;100.00;146564.34;1834790;77;22570;-64
2021/09/18 01:19:39;;;;;;;16.40;10.80;;;;;;;17.52;100.00;146563.06;1853551;77;22132;-58
2021/09/18 01:22:34;;;;;;;22.30;11.15;;;;;;;17.51;100.00;146560.55;1834885;77;22132;-61
2021/09/18 01:25:16;;;;;;;17.70;11.90;;;;;;;17.51;100.00;146560.55;1834114;77;22259;-62
2021/09/18 01:27:51;;;;;;;18.02;11.93;;;;;;;17.52;100.00;146563.06;1835059;77;22191;-62
2021/09/18 01:30:46;;;;;;;16.73;11.15;;;;;;;17.52;100.00;146563.06;1843421;77;22242;-61
2021/09/18 01:33:22;;;;;;;43.35;14.15;;;;;;;17.51;100.00;146559.30;1834976;77;22192;-63
2021/09/18 01:36:16;;;;;;;18.62;12.65;;;;;;;17.55;100.00;146570.66;1835056;77;22128;-64
2021/09/18 01:38:52;;;;;;;24.18;12.98;;;;;;;17.57;100.00;146574.41;1834815;77;22143;-62
2021/09/18 01:41:31;;;;;;;21.87;12.75;;;;;;;17.58;100.00;146576.97;1835094;77;22124;-63
2021/09/18 01:44:27;;;;;;;23.62;12.55;;;;;;;17.60;100.00;146580.72;1834795;77;22585;-64
2021/09/18 01:47:23;;;;;;;23.73;12.47;;;;;;;17.61;100.00;146584.52;1834794;77;22189;-63
2021/09/18 01:49:57;;;;;;;20.88;13.80;;;;;;;17.54;100.00;146568.09;1853587;77;22123;-66
2021/09/18 01:52:56;;;;;;;22.05;13.22;;;;;;;17.62;100.00;146587.02;1844844;77;22237;-58
2021/09/18 01:55:52;;;;;;;23.73;12.73;;;;;;;17.62;100.00;146587.02;1834998;77;22140;-61
2021/09/18 01:58:46;;;;;;;19.70;13.08;;;;;;;17.63;100.00;146588.27;1834989;77;22140;-65
2021/09/18 02:01:46;;;;;;;25.95;14.90;;;;;;;17.62;100.00;146587.02;1834133;77;22141;-61
2021/09/18 02:04:21;;;;;;;19.48;13.05;;;;;;;17.64;100.00;146590.81;1835012;77;22215;-63
2021/09/18 02:06:56;;;;;;;19.87;14.15;;;;;;;17.64;100.00;146590.81;1834947;77;22209;-63
2021/09/18 02:09:31;;;;;;;19.57;12.98;;;;;;;17.64;100.00;146590.81;1835004;77;22132;-66
2021/09/18 02:12:05;;;;;;;23.55;13.28;;;;;;;17.66;100.00;146595.88;1834986;77;22566;-63
2021/09/18 02:15:03;;;;;;;21.40;13.22;;;;;;;17.66;100.00;146595.88;1819322;77;28030;-60
2021/09/18 02:17:56;;;;;;;20.52;12.53;;;;;;;17.71;100.00;146608.48;1853639;77;22151;-66
2021/09/18 02:20:33;;;;;;;23.30;13.13;;;;;;;17.70;100.00;146605.94;1819386;77;28000;-65
2021/09/18 02:23:15;;;;;;;19.12;12.25;;;;;;;17.76;100.00;146621.09;1834178;77;22156;-59
2021/09/18 02:26:09;;;;;;;20.62;14.10;;;;;;;17.80;100.00;146631.20;1853477;77;22140;-66
2021/09/18 02:29:03;;;;;;;25.35;13.03;;;;;;;17.81;100.00;146633.75;1834993;77;22140;-64
2021/09/18 02:31:56;;;;;;;22.65;14.13;;;;;;;17.86;100.00;146645.06;1829925;77;22151;-65
2021/09/18 02:34:31;;;;;;;20.25;13.62;;;;;;;17.89;100.00;146652.67;1786927;79;22618;-64
2021/09/18 02:37:12;;;;;;;24.57;13.95;;;;;;;17.93;100.00;146663.98;1819711;77;22613;-67
2021/09/18 02:40:10;;;;;;;20.80;13.90;;;;;;;18.00;100.00;146681.66;1831454;77;22144;-63
2021/09/18 02:42:49;;;;;;;18.90;13.35;;;;;;;18.03;100.00;146686.70;1808179;77;22176;-65
2021/09/18 02:45:49;;;;;;;24.90;12.55;;;;;;;18.07;100.00;146698.08;1829513;77;22216;-60
2021/09/18 02:48:43;;;;;;;21.93;14.30;;;;;;;18.13;100.00;146713.19;1828411;77;22618;-59
2021/09/18 02:51:42;;;;;;;22.95;14.33;;;;;;;18.11;100.00;146706.88;1821948;77;22127;-60
2021/09/18 02:54:19;;;;;;;22.27;14.28;;;;;;;18.13;100.00;146713.19;1806936;77;22209;-63
2021/09/18 02:57:14;;;;;;;24.98;15.28;;;;;;;18.19;100.00;146728.36;1816711;77;22184;-61
2021/09/18 02:59:49;;;;;;;21.75;15.83;;;;;;;18.17;100.00;146723.30;1820282;77;22550;-59
2021/09/18 03:02:24;;;;;;;23.52;15.35;;;;;;;18.02;100.00;146684.20;1834973;77;22129;-62
2021/09/18 03:04:58;;;;;;;20.45;15.50;;;;;;;18.08;100.00;146699.33;1853606;77;22214;-61
2021/09/18 03:07:34;;;;;;;20.70;13.88;;;;;;;18.07;100.00;146696.81;1834974;77;22140;-63
2021/09/18 03:10:10;;;;;;;19.98;14.30;;;;;;;18.06;100.00;146695.53;1819266;77;28427;-59
2021/09/18 03:13:04;;;;;;;22.82;14.95;;;;;;;18.18;100.00;146724.56;1834947;77;22133;-61
2021/09/18 03:15:39;;;;;;;27.35;15.93;;;;;;;18.18;100.00;146725.81;1835015;77;22176;-61
2021/09/18 03:18:13;;;;;;;18.67;14.38;;;;;;;18.22;100.00;146735.92;1834996;77;22552;-60
2021/09/18 03:20:48;;;;;;;24.57;14.78;;;;;;;18.30;100.00;146754.84;1879442;76;22116;-65
2021/09/18 03:23:23;;;;;;;23.92;14.90;;;;;;;18.28;100.00;146749.78;1843422;77;22133;-62
2021/09/18 03:26:26;;;;;;;27.17;14.73;;;;;;;18.26;100.00;146744.73;1853629;77;22219;-63
2021/09/18 03:29:02;;;;;;;21.48;15.15;;;;;;;18.28;100.00;146749.78;1832900;77;22614;-62
2021/09/18 03:31:57;;;;;;;21.77;15.65;;;;;;;18.27;100.00;146747.28;1833442;77;22220;-65
2021/09/18 03:34:33;;;;;;;23.67;16.00;;;;;;;18.29;100.00;146751.03;1841386;77;22340;-60
2021/09/18 03:37:28;;;;;;;23.12;15.00;;;;;;;18.29;100.00;146752.28;1833483;77;22606;-62
2021/09/18 03:40:10;;;;;;;25.30;15.63;;;;;;;18.36;100.00;146769.97;1853581;77;22252;-61
2021/09/18 03:42:45;;;;;;;21.07;14.45;;;;;;;18.41;100.00;146781.33;1835001;77;22132;-63
2021/09/18 03:45:20;;;;;;;24.23;16.12;;;;;;;18.35;100.00;146766.20;1834973;77;22132;-62
2021/09/18 03:47:55;;;;;;;24.40;15.50;;;;;;;18.30;100.00;146754.84;1835066;77;22596;-61
2021/09/18 03:50:30;;;;;;;20.82;15.70;;;;;;;18.28;100.00;146749.78;1834969;77;22132;-61
2021/09/18 03:53:05;;;;;;;23.52;15.98;;;;;;;18.28;100.00;146749.78;1853550;77;22670;-61
2021/09/18 03:55:40;;;;;;;20.48;14.83;;;;;;;18.24;100.00;146739.67;1819381;77;27989;-61
2021/09/18 03:58:35;;;;;;;21.25;14.75;;;;;;;18.32;100.00;146759.89;1834788;77;22254;-60
2021/09/18 04:01:11;;;;;;;25.90;15.25;;;;;;;18.37;100.00;146771.27;1834814;77;22153;-60
2021/09/18 04:04:11;;;;;;;23.15;15.53;;;;;;;18.44;100.00;146790.19;1834083;77;22196;-59
2021/09/18 04:07:05;;;;;;;23.45;15.85;;;;;;;18.41;100.00;146782.58;1834901;77;22167;-63
2021/09/18 04:09:40;;;;;;;20.55;15.93;;;;;;;18.42;100.00;146783.87;1835023;77;22539;-60
2021/09/18 04:12:42;;;;;;;21.23;15.32;;;;;;;18.39;100.00;146777.56;1834248;77;22124;-61
2021/09/18 04:15:22;;;;;;;30.20;15.93;;;;;;;18.37;100.00;146772.52;1843179;77;22201;-59
2021/09/18 04:18:03;;;;;;;18.67;15.60;;;;;;;18.35;100.00;146767.47;1853558;77;22131;-59
2021/09/18 04:20:38;;;;;;;20.90;14.58;;;;;;;18.36;100.00;146768.72;1853602;77;22211;-63
2021/09/18 04:23:18;;;;;;;24.85;15.35;;;;;;;18.42;100.00;146783.87;1853511;77;22137;-59
2021/09/18 04:25:53;;;;;;;20.80;14.78;;;;;;;18.42;100.00;146785.12;1834997;77;22132;-61
2021/09/18 04:28:28;;;;;;;19.00;14.28;;;;;;;18.51;100.00;146805.31;1853553;77;22123;-62
2021/09/18 04:31:09;;;;;;;25.50;15.65;;;;;;;18.55;100.00;146815.42;1834204;77;22234;-63
2021/09/18 04:33:46;;;;;;;25.70;15.60;;;;;;;18.42;100.00;146783.87;1834797;77;22570;-61
2021/09/18 04:36:21;;;;;;;20.70;15.03;;;;;;;18.47;100.00;146795.19;1819390;77;28006;-60
2021/09/18 04:38:57;;;;;;;21.93;14.75;;;;;;;18.52;100.00;146807.81;1853497;77;22159;-59
2021/09/18 04:41:32;;;;;;;21.75;13.60;;;;;;;18.42;100.00;146785.12;1853535;77;22124;-62
2021/09/18 04:44:29;;;;;;;23.10;14.43;;;;;;;18.46;100.00;146792.69;1841329;77;22223;-63
2021/09/18 04:47:04;;;;;;;23.87;14.87;;;;;;;18.51;100.00;146805.31;1820385;77;22132;-61
2021/09/18 04:49:39;;;;;;;34.78;14.50;;;;;;;18.66;100.00;146843.16;1835037;77;22155;-62
2021/09/18 04:52:34;;;;;;;22.22;15.18;;;;;;;18.97;100.00;146918.94;1834719;77;22659;-68
2021/09/18 04:55:09;;;;;;;19.92;14.68;;;;;;;19.09;100.00;146950.50;1853568;77;22128;-58
2021/09/18 04:57:45;;;;;;;20.55;15.55;;;;;;;19.27;99.61;146994.69;1826102;77;20186;-57
2021/09/18 05:00:44;;;;;;;21.48;14.93;;;;;;;19.09;99.67;146950.50;1834316;77;22176;-60
2021/09/18 05:03:44;;;;;;;22.22;14.60;;;;;;;18.93;100.00;146908.83;1853476;77;22175;-64
2021/09/18 05:06:19;;;;;;;23.52;15.10;;;;;;;18.87;100.00;146896.20;1835098;77;22140;-64
2021/09/18 05:09:00;;;;;;;19.52;14.68;;;;;;;18.91;100.00;146903.81;1834137;77;22188;-62
2021/09/18 05:11:45;;;;;;;24.75;14.50;;;;;;;18.97;100.00;146918.94;1853590;77;22222;-62
2021/09/18 05:14:20;;;;;;;23.77;16.25;;;;;;;18.99;100.00;146924.00;1853583;77;22144;-65
2021/09/18 05:17:20;;;;;;;26.57;14.20;;;;;;;18.78;100.00;146873.52;1853438;77;22187;-60
2021/09/18 05:19:55;;;;;;;22.58;15.50;;;;;;;18.89;100.00;146898.75;1853553;77;22167;-62
2021/09/18 05:22:29;;;;;;;21.23;14.93;;;;;;;18.89;100.00;146898.75;1835032;77;22180;-62
2021/09/18 05:25:08;;;;;;;19.65;14.53;;;;;;;18.87;100.00;146894.95;1834790;77;22208;-65
2021/09/18 05:28:03;;;;;;;23.15;15.18;;;;;;;18.94;100.00;146911.38;1834893;77;22163;-64
2021/09/18 05:30:57;;;;;;;20.55;15.55;;;;;;;19.00;99.67;146926.50;1800869;79;22169;-61
2021/09/18 05:33:39;;;;;;;21.85;15.98;;;;;;;18.89;99.83;146900.00;1853656;77;22193;-65
2021/09/18 05:36:15;;;;;;;20.35;14.25;;;;;;;18.86;99.85;146893.70;1834930;77;22133;-65
2021/09/18 05:38:55;;;;;;;19.82;14.95;;;;;;;18.86;99.91;146893.70;1853523;77;22201;-64
2021/09/18 05:41:50;;;;;;;18.02;13.40;;;;;;;18.89;99.59;146898.75;1835498;77;22654;-64
2021/09/18 05:44:41;;;;;;;22.73;14.33;;;;;;;18.87;99.83;146896.20;1834927;77;22156;-64
2021/09/18 05:47:16;;;;;;;22.67;15.68;;;;;;;18.92;99.38;146906.31;1834916;77;22140;-63
2021/09/18 05:49:51;;;;;;;21.82;14.73;;;;;;;18.96;99.06;146916.44;1853534;77;22139;-64
2021/09/18 05:52:28;;;;;;;20.15;14.30;;;;;;;19.07;98.50;146945.44;1853512;77;22591;-63
2021/09/18 05:55:04;;;;;;;27.35;14.45;;;;;;;19.25;97.72;146989.63;1834963;77;22132;-61
2021/09/18 05:58:05;;;;;;;21.70;14.75;;;;;;;19.46;96.52;147041.44;1853438;77;22660;-62
2021/09/18 06:00:40;;;;;;;21.37;15.58;;;;;;;19.49;95.63;147047.73;1834980;77;22136;-62
2021/09/18 06:03:15;;;;;;;23.15;14.63;;;;;;;19.44;95.45;147035.11;1800730;79;22575;-62
2021/09/18 06:05:52;;;;;;;20.20;14.33;;;;;;;19.34;95.68;147009.86;1835027;77;22124;-63
2021/09/18 06:08:29;;;;;;;21.40;14.15;;;;;;;19.29;95.98;146998.48;1835124;77;22136;-61
2021/09/18 06:11:41;;;;;;;21.93;13.38;;;;;;;19.37;94.92;147017.42;1837764;77;22263;-60
2021/09/18 06:14:17;;;;;;;18.87;13.15;;;;;;;19.38;94.83;147019.94;1853568;77;22603;-64
2021/09/18 06:16:51;;;;;;;22.07;14.53;;;;;;;19.45;94.10;147038.88;1853608;77;22218;-60
2021/09/18 06:19:28;;;;;;;19.87;14.00;;;;;;;19.46;94.17;147041.44;1835460;77;22566;-65
2021/09/18 06:22:21;;;;;;;20.70;13.90;;;;;;;19.41;94.13;147028.80;1834927;77;22140;-62
2021/09/18 06:24:56;;;;;;;21.52;13.48;;;;;;;19.26;94.86;146992.17;1835049;77;22132;-62
2021/09/18 06:27:34;;;;;;;17.50;13.60;;;;;;;19.16;95.18;146966.94;1853547;77;22132;-60
2021/09/18 06:30:16;;;;;;;18.92;13.60;;;;;;;19.10;95.55;146951.75;1834249;77;22184;-60
2021/09/18 06:33:30;;;;;;;22.58;14.65;;;;;;;19.19;95.53;146974.50;1831875;77;22294;-59
2021/09/18 06:36:06;;;;;;;19.40;14.63;;;;;;;19.32;94.51;147006.06;1835104;77;22132;-59
2021/09/18 06:39:05;;;;;;;19.05;13.95;;;;;;;19.40;93.49;147025.00;1834134;77;22200;-61
2021/09/18 06:41:40;;;;;;;19.95;14.28;;;;;;;19.44;93.10;147036.38;1853681;77;22131;-60
2021/09/18 06:44:38;;;;;;;22.73;15.30;;;;;;;19.46;93.04;147040.12;1834942;77;22132;-61
2021/09/18 06:47:13;;;;;;;21.48;13.80;;;;;;;19.36;93.53;147014.88;1853510;77;22159;-64
2021/09/18 06:49:54;;;;;;;20.80;14.03;;;;;;;19.42;93.63;147030.05;1848121;77;22211;-62
2021/09/18 06:52:31;;;;;;;19.23;13.32;;;;;;;19.72;92.40;147104.63;1834817;77;22185;-59
2021/09/18 06:55:26;;;;;;;21.82;12.80;;;;;;;20.66;88.97;147337.12;1834951;77;22137;-61
2021/09/18 06:58:08;;;;;;;17.07;12.28;;;;;;;21.54;83.05;147553.33;1853543;77;22222;-65
2021/09/18 07:00:49;;;;;;;16.23;12.60;;;;;;;21.85;81.30;147631.77;1834181;77;22129;-61
2021/09/18 07:03:30;;;;;;;18.00;12.47;;;;;;;21.63;80.05;147576.11;1834042;77;22248;-62
2021/09/18 07:06:05;;;;;;;19.98;13.00;;;;;;;21.23;80.75;147477.42;1835056;77;22137;-60
2021/09/18 07:08:40;;;;;;;18.90;11.45;;;;;;;20.70;82.34;147347.20;1819379;77;28010;-62
2021/09/18 07:11:35;;;;;;;16.02;12.43;;;;;;;20.45;83.46;147283.97;1834887;77;22164;-64
2021/09/18 07:14:10;;;;;;;17.12;12.23;;;;;;;20.16;84.74;147213.23;1819269;77;28007;-63
2021/09/18 07:16:45;;;;;;;16.52;11.28;;;;;;;20.07;85.94;147191.72;1853542;77;22132;-62
2021/09/18 07:19:20;;;;;;;20.72;12.03;;;;;;;20.07;86.34;147190.47;1835065;77;22132;-65
2021/09/18 07:22:03;;;;;;;17.35;11.70;;;;;;;19.97;86.66;147165.22;1853528;77;22216;-59
2021/09/18 07:24:57;;;;;;;17.02;10.65;;;;;;;20.07;86.49;147190.47;1834689;77;22132;-64
2021/09/18 07:27:33;;;;;;;15.10;11.50;;;;;;;20.18;85.38;147217.05;1818374;77;28007;-63
2021/09/18 07:30:26;;;;;;;16.20;10.72;;;;;;;20.20;85.48;147222.06;1853484;77;22135;-60
2021/09/18 07:33:08;;;;;;;12.40;9.98;;;;;;;20.25;85.10;147236.00;1834141;77;22158;-62
2021/09/18 07:36:04;;;;;;;16.77;9.83;;;;;;;20.32;84.20;147253.64;1834966;77;22140;-61
2021/09/18 07:38:59;;;;;;;17.23;10.65;;;;;;;20.36;83.66;147263.77;1834656;77;22603;-60
2021/09/18 07:41:34;;;;;;;17.85;9.55;;;;;;;20.36;83.63;147262.52;1853519;77;22160;-63
2021/09/18 07:44:09;;;;;;;15.18;8.88;;;;;;;20.26;83.20;147238.50;1853597;77;22135;-64
2021/09/18 07:47:04;;;;;;;10.88;7.72;;;;;;;20.30;82.96;147247.33;1834976;77;22603;-64
2021/09/18 07:49:39;;;;;;;13.25;7.85;;;;;;;20.52;81.39;147302.94;1819421;77;27984;-61
2021/09/18 07:52:34;;;;;;;11.85;7.22;;;;;;;20.94;78.62;147406.64;1835041;77;22129;-61
2021/09/18 07:55:10;;;;;;;9.93;6.37;;;;;;;21.00;77.76;147420.53;1834950;77;22214;-62
2021/09/18 07:57:45;;;;;;;9.70;6.00;;;;;;;21.17;76.50;147462.27;1837848;77;27988;-60
2021/09/18 08:00:47;;;;;;;8.00;5.62;;;;;;;21.00;75.73;147421.78;1834166;77;22178;-62
2021/09/18 08:03:22;;;;;;;9.20;6.15;;;;;;;20.90;76.53;147396.50;1837914;77;38901;-65
2021/09/18 08:06:18;;;;;;;7.50;5.65;;;;;;;20.91;76.65;147397.77;1819294;77;27996;-64
2021/09/18 08:09:12;;;;;;;8.88;5.78;;;;;;;20.91;76.80;147397.77;1853575;77;22614;-62
2021/09/18 08:12:06;;;;;;;7.58;5.65;;;;;;;20.80;76.67;147371.23;1834910;77;22562;-61
2021/09/18 08:14:42;;;;;;;11.38;5.70;;;;;;;20.73;76.46;147353.53;1837691;77;22194;-65
2021/09/18 08:17:19;;;;;;;6.92;4.65;;;;;;;20.76;76.24;147361.09;1805440;77;28301;-62
2021/09/18 08:20:00;;;;;;;5.60;3.90;;;;;;;20.79;75.28;147368.72;1817104;77;22257;-66
2021/09/18 08:22:54;;;;;;;5.53;4.45;;;;;;;20.64;75.37;147330.81;1817496;77;22172;-62
2021/09/18 08:25:30;;;;;;;6.25;4.17;;;;;;;20.51;75.74;147300.42;1801953;77;28421;-61
2021/09/18 08:28:11;;;;;;;6.62;4.17;;;;;;;20.34;76.50;147257.45;1824664;77;22182;-60
2021/09/18 08:30:47;;;;;;;6.22;4.67;;;;;;;20.18;76.69;147218.30;1805619;77;28571;-65
2021/09/18 08:33:29;;;;;;;6.47;4.17;;;;;;;20.14;76.92;147209.42;1853637;77;22211;-66
2021/09/18 08:36:06;;;;;;;5.17;3.87;;;;;;;20.06;77.54;147187.97;1834749;77;22574;-61
2021/09/18 08:38:41;;;;;;;5.95;4.37;;;;;;;20.08;77.85;147194.28;1819238;77;38283;-62
2021/09/18 08:41:36;;;;;;;5.72;3.87;;;;;;;20.28;77.30;147242.31;1834701;77;22156;-62
2021/09/18 08:44:11;;;;;;;5.10;3.90;;;;;;;20.35;77.26;147259.97;1819273;77;28001;-65
2021/09/18 08:47:06;;;;;;;6.08;4.85;;;;;;;20.56;76.74;147313.11;1853404;77;22164;-61
2021/09/18 08:50:10;;;;;;;8.55;4.80;;;;;;;20.62;76.20;147325.75;1853358;77;22649;-64
2021/09/18 08:53:11;;;;;;;6.30;4.50;;;;;;;20.56;76.30;147313.11;1824611;77;22293;-59
2021/09/18 08:55:55;;;;;;;8.58;5.03;;;;;;;20.39;76.66;147270.09;1819466;77;22214;-59
2021/09/18 08:58:49;;;;;;;6.47;4.30;;;;;;;20.06;78.35;147189.22;1821605;77;22171;-57
2021/09/18 09:01:43;;;;;;;6.28;4.50;;;;;;;19.79;79.70;147122.25;1834975;77;22165;-60
2021/09/18 09:04:45;;;;;;;6.12;4.60;;;;;;;19.54;81.70;147060.38;1853472;77;22163;-63
2021/09/18 09:07:22;;;;;;;5.95;4.37;;;;;;;19.39;82.94;147023.75;1834738;77;22168;-63
2021/09/18 09:10:04;;;;;;;7.72;5.15;;;;;;;19.18;84.56;146971.94;1834936;77;22164;-65
2021/09/18 09:12:45;;;;;;;5.15;3.83;;;;;;;18.97;86.69;146920.19;1834032;77;22167;-60
2021/09/18 09:15:46;;;;;;;3.45;2.30;;;;;;;18.77;87.89;146870.97;1842419;78;22227;-61
2021/09/18 09:18:40;;;;;;;4.85;2.33;;;;;;;18.52;88.41;146807.81;1833904;77;22212;-60
2021/09/18 09:21:35;;;;;;;4.00;2.10;;;;;;;18.32;89.16;146758.59;1834720;77;22636;-61
2021/09/18 09:24:13;;;;;;;4.87;1.55;;;;;;;18.09;89.37;146701.83;1834965;77;22132;-65
2021/09/18 09:27:13;;;;;;;3.37;1.60;;;;;;;17.81;88.94;146632.45;1834953;77;22144;-60
2021/09/18 09:30:09;;;;;;;2.50;1.32;;;;;;;17.57;88.51;146574.41;1843410;77;22164;-61
2021/09/18 09:33:08;;;;;;;3.30;1.47;;;;;;;17.45;88.61;146545.39;1819288;77;28345;-65
2021/09/18 09:35:44;;;;;;;2.60;1.25;;;;;;;17.39;87.68;146530.28;1834871;77;22169;-58
2021/09/18 09:38:38;;;;;;;2.87;1.40;;;;;;;17.32;87.77;146512.63;1834902;77;22196;-63
2021/09/18 09:41:28;;;;;;;2.98;1.60;;;;;;;17.26;88.12;146498.77;1853549;77;22542;-66
2021/09/18 09:44:27;;;;;;;2.87;1.40;;;;;;;17.22;88.29;146488.66;1835026;77;22141;-63
2021/09/18 09:47:22;;;;;;;6.50;1.55;;;;;;;17.19;87.96;146479.84;1853554;77;22132;-64
2021/09/18 09:50:19;;;;;;;2.35;1.22;;;;;;;17.18;87.79;146477.34;1853610;77;20470;-68
2021/09/18 09:52:56;;;;;;;4.33;1.32;;;;;;;17.19;87.35;146481.09;1834988;77;22611;-66
2021/09/18 09:55:38;;;;;;;4.37;1.40;;;;;;;17.19;86.98;146479.84;1853552;77;22558;-63
2021/09/18 09:58:54;;;;;;;5.22;1.47;;;;;;;17.24;86.87;146493.70;1818934;77;22625;-59
2021/09/18 10:01:40;;;;;;;3.33;1.50;;;;;;;17.32;86.58;146512.63;1820254;77;22597;-63
2021/09/18 10:04:17;;;;;;;4.25;1.42;;;;;;;17.39;86.49;146529.03;1830150;77;22196;-65
2021/09/18 10:06:58;;;;;;;3.52;1.30;;;;;;;17.46;86.14;146547.94;1834151;77;22244;-65
2021/09/18 10:10:00;;;;;;;3.55;1.30;;;;;;;17.52;85.72;146563.06;1834102;77;22168;-60
2021/09/18 10:12:37;;;;;;;3.92;1.47;;;;;;;17.53;85.51;146564.34;1832302;77;22168;-63
2021/09/18 10:15:33;;;;;;;4.78;1.30;;;;;;;17.45;85.05;146545.39;1823279;77;22172;-64
2021/09/18 10:18:35;;;;;;;2.60;1.20;;;;;;;17.21;85.84;146484.91;1853475;77;22163;-72
2021/09/18 10:24:24;;;;;;;11.78;3.95;;;;;;;17.20;86.81;146483.66;1832444;77;22207;-63
2021/09/18 10:27:25;;;;;;;7.03;3.40;;;;;;;17.25;87.24;146494.97;1811247;77;22334;-70
2021/09/18 10:30:32;;;;;;;8.60;3.02;;;;;;;17.30;86.55;146507.56;1847836;78;22623;-61
2021/09/18 10:33:32;;;;;;;5.30;2.25;;;;;;;17.22;85.51;146487.41;1853232;77;22136;-64
2021/09/18 10:36:30;;;;;;;5.67;2.27;;;;;;;17.27;85.30;146500.02;1833305;77;22677;-62
2021/09/18 10:39:19;;;;;;;3.05;1.75;;;;;;;17.34;84.78;146518.92;1851773;77;22225;-63
2021/09/18 10:42:17;;;;;;;5.20;2.35;;;;;;;17.38;83.48;146526.47;1833435;77;22230;-63
2021/09/18 10:45:15;;;;;;;8.48;2.20;;;;;;;17.44;82.74;146541.64;1853105;77;22587;-59
2021/09/18 10:47:52;;;;;;;4.17;2.00;;;;;;;17.48;82.49;146553.00;1835164;77;22129;-62
2021/09/18 10:50:33;;;;;;;3.62;2.12;;;;;;;17.53;81.73;146565.61;1853693;77;22546;-63
2021/09/18 10:53:27;;;;;;;8.85;2.77;;;;;;;17.51;80.27;146559.30;1853659;77;22139;-60
2021/09/18 10:56:21;;;;;;;4.37;2.60;;;;;;;17.42;80.78;146537.83;1835075;77;22124;-67
2021/09/18 10:59:06;;;;;;;5.58;2.27;;;;;;;17.51;80.51;146560.55;1853630;77;22207;-64
2021/09/18 11:01:39;;;;;;;5.03;2.75;;;;;;;17.53;80.33;146565.61;1837923;77;28418;-66
2021/09/18 11:04:38;;;;;;;5.55;2.58;;;;;;;17.57;80.48;146574.41;1853946;77;22195;-68
2021/09/18 11:08:05;;;;;;;4.80;2.60;;;;;;;17.50;80.14;146558.05;1835100;77;22211;-60
2021/09/18 11:10:46;;;;;;;5.15;2.15;;;;;;;17.42;80.23;146537.83;1834774;77;22201;-69
2021/09/18 11:13:25;;;;;;;4.97;2.95;;;;;;;17.43;80.12;146540.37;1853569;77;22151;-64
2021/09/18 11:16:30;;;;;;;4.65;2.67;;;;;;;17.44;79.71;146541.64;1848252;77;22162;-66
2021/09/18 11:19:11;;;;;;;5.75;2.70;;;;;;;17.34;79.47;146517.67;1853670;77;22156;-64
2021/09/18 11:22:13;;;;;;;4.72;2.80;;;;;;;17.09;79.08;146455.89;1835053;77;22140;-62
2021/09/18 11:25:36;;;;;;;4.97;2.42;;;;;;;17.13;79.61;146466.00;1853640;77;22166;-68
2021/09/18 11:28:16;;;;;;;5.47;2.58;;;;;;;17.00;79.36;146434.48;1835049;77;22125;-61
2021/09/18 11:31:10;;;;;;;7.75;2.65;;;;;;;16.90;79.39;146409.28;1853676;77;22166;-63
2021/09/18 11:34:04;;;;;;;6.65;3.42;;;;;;;16.80;79.16;146385.33;1835019;77;22132;-59
2021/09/18 11:36:45;;;;;;;5.20;2.35;;;;;;;16.55;79.34;146322.27;1819516;77;27952;-61
2021/09/18 11:39:41;;;;;;;5.05;2.75;;;;;;;16.58;79.65;146329.81;1835073;77;22160;-67
2021/09/18 11:42:33;;;;;;;6.58;2.40;;;;;;;16.57;79.83;146328.56;1853619;77;22123;-70
2021/09/18 11:45:18;;;;;;;8.53;2.83;;;;;;;16.45;79.75;146298.31;1834239;77;22591;-64
2021/09/18 11:48:09;;;;;;;7.60;2.75;;;;;;;16.50;79.80;146310.92;1835066;77;22125;-63
2021/09/18 11:50:45;;;;;;;5.60;2.55;;;;;;;16.54;80.02;146321.02;1819463;77;27934;-64
2021/09/18 11:53:46;;;;;;;11.50;3.02;;;;;;;16.71;79.61;146363.88;1853896;77;22199;-68
2021/09/18 11:56:21;;;;;;;6.33;2.80;;;;;;;16.66;79.36;146349.97;1835020;77;22587;-65
2021/09/18 11:59:16;;;;;;;4.47;2.08;;;;;;;16.68;78.61;146356.27;1836780;77;22261;-65
2021/09/18 12:01:51;;;;;;;5.10;2.45;;;;;;;16.48;79.45;146307.13;1835132;77;22541;-66
2021/09/18 12:04:49;;;;;;;7.20;2.52;;;;;;;16.54;79.32;146321.02;1853572;77;22156;-69
2021/09/18 12:07:27;;;;;;;5.42;2.35;;;;;;;16.64;78.96;146346.22;1834870;77;22161;-61
2021/09/18 12:10:24;;;;;;;6.55;2.62;;;;;;;16.69;78.72;146358.81;1819159;77;27978;-73
2021/09/18 12:13:02;;;;;;;5.83;2.30;;;;;;;16.93;78.31;146418.08;1853832;77;22124;-63
2021/09/18 12:15:40;;;;;;;4.25;2.47;;;;;;;17.35;76.25;146520.17;1853926;77;22124;-66
2021/09/18 12:18:40;;;;;;;5.20;2.17;;;;;;;17.42;76.35;146537.83;1835203;77;22567;-67
2021/09/18 12:21:37;;;;;;;6.05;2.52;;;;;;;17.54;75.18;146566.86;1853675;77;22665;-64
2021/09/18 12:24:20;;;;;;;3.90;2.02;;;;;;;17.56;74.85;146571.91;1834242;77;22583;-65
2021/09/18 12:26:55;;;;;;;5.30;2.20;;;;;;;17.52;74.61;146563.06;1853646;77;22131;-63
2021/09/18 12:30:03;;;;;;;4.05;2.12;;;;;;;17.42;75.16;146537.83;1835032;77;22157;-64
2021/09/18 12:33:12;;;;;;;4.87;2.22;;;;;;;17.40;74.60;146532.78;1834861;77;22172;-67
2021/09/18 12:36:09;;;;;;;5.62;2.50;;;;;;;17.31;74.82;146510.12;1834990;77;22136;-63
2021/09/18 12:39:27;;;;;;;6.80;3.00;;;;;;;17.25;74.58;146494.97;1843166;77;22248;-68